createdAt,value
2023-02-02T00:05:59.290Z,74.74
2023-02-02T00:08:25.892Z,73.70
2023-02-02T00:10:52.530Z,73.16
2023-02-02T00:16:58.829Z,70.64
2023-02-02T00:19:31.885Z,72.25
2023-02-02T00:21:58.290Z,73.13
2023-02-02T00:24:25.183Z,71.59
2023-02-02T00:26:54.534Z,72.64
2023-02-02T00:29:24.124Z,71.62
2023-02-02T00:31:51.258Z,71.27
2023-02-02T00:36:53.279Z,70.16
2023-02-02T00:39:22.805Z,68.70
2023-02-02T00:41:49.411Z,68.90
2023-02-02T00:48:06.061Z,68.33
2023-02-02T00:50:33.103Z,67.36
2023-02-02T00:52:59.645Z,67.34
2023-02-02T00:55:26.833Z,67.05
2023-02-02T00:57:54.110Z,67.05
2023-02-02T01:00:24.266Z,66.78
2023-02-02T01:03:07.092Z,66.31
2023-02-02T01:05:34.571Z,67.14
2023-02-02T01:08:01.788Z,68.16
2023-02-02T01:10:28.664Z,68.66
2023-02-02T01:13:13.375Z,68.20
2023-02-02T01:16:29.041Z,69.22
2023-02-02T01:19:01.438Z,69.41
2023-02-02T01:21:28.026Z,69.06
2023-02-02T01:23:54.536Z,70.33
2023-02-02T01:26:21.124Z,70.27
2023-02-02T01:28:48.977Z,73.16
2023-02-02T01:31:18.389Z,73.81
2023-02-02T01:33:46.761Z,73.46
2023-02-02T01:36:16.386Z,74.26
2023-02-02T01:38:49.989Z,75.46
2023-02-02T01:41:24.214Z,74.54
2023-02-02T01:47:43.021Z,74.71
2023-02-02T01:50:12.107Z,75.04
2023-02-02T01:52:40.152Z,74.39
2023-02-02T01:55:11.964Z,74.96
2023-02-02T01:57:49.325Z,74.81
2023-02-02T02:00:17.012Z,73.98
2023-02-02T02:05:26.329Z,74.66
2023-02-02T02:07:56.705Z,75.00
2023-02-02T02:10:23.728Z,74.35
2023-02-02T02:20:24.269Z,73.48
2023-02-02T02:23:45.654Z,72.66
2023-02-02T02:26:38.776Z,73.85
2023-02-02T02:29:42.435Z,73.67
2023-02-02T02:32:17.787Z,74.16
2023-02-02T02:34:58.491Z,73.82
2023-02-02T02:37:28.153Z,73.48
2023-02-02T02:40:22.927Z,74.75
2023-02-02T02:42:56.117Z,73.92
2023-02-02T02:45:25.606Z,74.23
2023-02-02T02:48:17.482Z,75.11
2023-02-02T02:51:37.865Z,74.28
2023-02-02T02:54:04.587Z,74.44
2023-02-02T02:56:38.641Z,74.14
2023-02-02T02:59:40.405Z,74.51
2023-02-02T03:02:19.080Z,73.45
2023-02-02T03:05:13.177Z,73.27
2023-02-02T03:07:47.496Z,73.30
2023-02-02T03:10:19.374Z,74.43
2023-02-02T03:12:48.681Z,75.00
2023-02-02T03:15:16.062Z,74.26
2023-02-02T03:17:43.731Z,73.73
2023-02-02T03:20:10.963Z,74.02
2023-02-02T03:22:59.211Z,73.16
2023-02-02T03:26:10.593Z,73.52
2023-02-02T03:28:37.422Z,73.67
2023-02-02T03:31:04.905Z,73.74
2023-02-02T03:33:35.646Z,73.34
2023-02-02T03:36:13.981Z,73.40
2023-02-02T03:38:40.567Z,73.74
2023-02-02T03:41:07.131Z,73.93
2023-02-02T03:43:33.697Z,73.73
2023-02-02T03:46:04.280Z,72.76
2023-02-02T03:48:32.126Z,73.42
2023-02-02T03:51:09.046Z,73.87
2023-02-02T03:53:35.852Z,73.82
2023-02-02T03:56:02.427Z,74.27
2023-02-02T03:58:29.022Z,75.06
2023-02-02T04:01:15.025Z,74.16
2023-02-02T04:04:04.443Z,73.59
2023-02-02T04:06:31.619Z,73.40
2023-02-02T04:08:58.198Z,72.66
2023-02-02T04:11:24.813Z,73.34
2023-02-02T04:13:51.375Z,72.83
2023-02-02T04:16:18.126Z,73.58
2023-02-02T04:18:44.802Z,74.62
2023-02-02T04:21:26.562Z,74.83
2023-02-02T04:23:53.130Z,74.99
2023-02-02T04:26:20.034Z,75.13
2023-02-02T04:28:46.615Z,76.43
2023-02-02T04:31:13.279Z,77.88
2023-02-02T04:34:02.516Z,77.42
2023-02-02T04:36:51.480Z,76.63
2023-02-02T04:39:18.014Z,76.61
2023-02-02T04:41:44.558Z,75.61
2023-02-02T04:44:15.145Z,75.35
2023-02-02T04:46:43.329Z,75.67
2023-02-02T04:49:12.055Z,76.01
2023-02-02T04:51:40.076Z,75.21
2023-02-02T04:54:07.493Z,76.15
2023-02-02T04:56:34.612Z,75.33
2023-02-02T04:59:01.202Z,73.78
2023-02-02T05:01:46.097Z,75.04
2023-02-02T05:04:57.635Z,75.62
2023-02-02T05:07:33.452Z,76.71
2023-02-02T05:10:00.090Z,76.61
2023-02-02T05:12:26.633Z,75.76
2023-02-02T05:14:53.280Z,75.85
2023-02-02T05:17:19.902Z,75.38
2023-02-02T05:19:46.497Z,74.69
2023-02-02T05:22:13.147Z,75.21
2023-02-02T05:24:39.757Z,76.25
2023-02-02T05:27:06.383Z,75.23
2023-02-02T05:29:33.058Z,74.99
2023-02-02T05:32:19.907Z,75.74
2023-02-02T05:35:05.655Z,74.55
2023-02-02T05:37:32.204Z,75.01
2023-02-02T05:39:58.786Z,75.42
2023-02-02T05:42:25.351Z,74.18
2023-02-02T05:44:51.916Z,74.26
2023-02-02T05:47:18.583Z,75.40
2023-02-02T06:13:42.191Z,74.51
2023-02-02T06:16:09.793Z,74.34
2023-02-02T06:18:37.369Z,75.85
2023-02-02T06:21:16.187Z,76.68
2023-02-02T06:23:46.066Z,75.90
2023-02-02T06:26:15.223Z,75.15
2023-02-02T06:28:42.833Z,75.35
2023-02-02T06:31:11.745Z,74.74
2023-02-02T06:33:41.115Z,75.33
2023-02-02T06:36:08.631Z,74.27
2023-02-02T06:38:35.205Z,74.88
2023-02-02T06:41:02.582Z,75.32
2023-02-02T06:43:30.215Z,75.84
2023-02-02T06:46:00.084Z,75.37
2023-02-02T06:48:27.360Z,76.69
2023-02-02T06:50:54.181Z,76.84
2023-02-02T06:53:23.910Z,77.43
2023-02-02T06:55:59.317Z,77.33
2023-02-02T06:58:26.428Z,77.14
2023-02-02T07:00:53.428Z,75.78
2023-02-02T07:03:21.590Z,75.89
2023-02-02T07:05:49.491Z,75.71
2023-02-02T07:08:16.751Z,75.58
2023-02-02T07:11:12.800Z,75.88
2023-02-02T07:13:31.067Z,74.13
2023-02-02T07:15:58.278Z,74.04
2023-02-02T07:18:25.009Z,74.26
2023-02-02T07:20:51.675Z,74.46
2023-02-02T07:23:18.326Z,72.83
2023-02-02T07:25:44.889Z,72.41
2023-02-02T07:28:11.556Z,71.23
2023-02-02T07:30:38.152Z,71.83
2023-02-02T07:33:04.763Z,72.46
2023-02-02T07:35:31.425Z,71.67
2023-02-02T07:37:58.057Z,71.17
2023-02-02T07:40:24.699Z,70.15
2023-02-02T07:42:51.319Z,69.28
2023-02-02T07:45:26.932Z,68.52
2023-02-02T07:48:01.021Z,68.56
2023-02-02T07:50:28.997Z,67.97
2023-02-02T07:52:55.593Z,67.49
2023-02-02T07:55:22.256Z,66.91
2023-02-02T07:57:48.844Z,67.09
2023-02-02T08:00:15.720Z,67.88
2023-02-02T08:02:42.574Z,67.60
2023-02-02T08:05:09.601Z,67.29
2023-02-02T08:07:36.228Z,68.63
2023-02-02T08:10:03.354Z,67.75
2023-02-02T08:12:29.921Z,67.62
2023-02-02T08:14:56.520Z,67.54
2023-02-02T08:17:23.632Z,66.94
2023-02-02T08:19:50.713Z,66.99
2023-02-02T08:22:20.017Z,67.02
2023-02-02T08:24:46.918Z,67.18
2023-02-02T08:27:13.622Z,66.57
2023-02-02T08:29:40.164Z,66.26
2023-02-02T08:32:06.828Z,65.45
2023-02-02T08:34:36.851Z,64.41
2023-02-02T08:39:38.726Z,64.10
2023-02-02T08:42:05.341Z,63.87
2023-02-02T08:44:44.921Z,62.67
2023-02-02T08:47:19.467Z,62.92
2023-02-02T08:49:46.165Z,62.36
2023-02-02T08:55:46.161Z,61.67
2023-02-02T08:58:12.720Z,61.39
2023-02-02T09:00:39.501Z,60.15
2023-02-02T09:03:06.107Z,61.95
2023-02-02T09:05:32.708Z,60.47
2023-02-02T09:07:59.639Z,59.50
2023-02-02T09:10:26.273Z,60.05
2023-02-02T09:12:52.832Z,58.61
2023-02-02T09:15:19.393Z,58.99
2023-02-02T09:17:45.948Z,59.53
2023-02-02T09:20:12.860Z,59.60
2023-02-02T09:22:39.488Z,58.04
2023-02-02T09:25:21.249Z,57.52
2023-02-02T09:27:48.046Z,57.80
2023-02-02T09:30:14.953Z,58.47
2023-02-02T09:32:41.699Z,58.70
2023-02-02T09:35:08.527Z,58.31
2023-02-02T09:41:38.112Z,58.69
2023-02-02T09:44:32.991Z,58.69
2023-02-02T09:47:18.166Z,58.18
2023-02-02T09:49:57.609Z,58.42
2023-02-02T09:52:24.112Z,58.47
2023-02-02T10:00:01.191Z,57.33
2023-02-02T10:02:39.205Z,56.69
2023-02-02T10:09:32.814Z,55.20
2023-02-02T10:12:15.522Z,55.41
2023-02-02T10:15:13.526Z,55.07
2023-02-02T10:17:55.552Z,54.66
2023-02-02T10:20:46.599Z,54.84
2023-02-02T10:23:25.164Z,54.62
2023-02-02T10:26:08.553Z,54.92
2023-02-02T10:28:53.966Z,54.42
2023-02-02T10:31:36.786Z,54.10
2023-02-02T10:34:27.125Z,54.95
2023-02-02T10:37:08.828Z,53.35
2023-02-02T10:39:54.131Z,53.12
2023-02-02T10:42:35.753Z,53.03
2023-02-02T10:45:35.157Z,52.84
2023-02-02T10:48:02.382Z,52.64
2023-02-02T10:50:29.204Z,55.32
2023-02-02T10:53:01.642Z,54.77
2023-02-02T10:55:56.463Z,52.10
2023-02-02T10:58:36.446Z,52.57
2023-02-02T11:01:05.121Z,52.83
2023-02-02T11:03:32.729Z,52.58
2023-02-02T11:06:21.402Z,54.43
2023-02-02T11:08:56.774Z,52.66
2023-02-02T11:11:38.548Z,53.41
2023-02-02T11:14:08.270Z,54.24
2023-02-02T11:16:43.530Z,53.54
2023-02-02T11:19:22.524Z,53.55
2023-02-02T11:21:51.355Z,54.23
2023-02-02T11:24:24.454Z,55.04
2023-02-02T11:26:51.192Z,54.31
2023-02-02T11:29:29.809Z,54.26
2023-02-02T11:31:57.154Z,53.28
2023-02-02T11:34:28.246Z,53.79
2023-02-02T11:37:12.760Z,53.10
2023-02-02T11:39:53.761Z,52.87
2023-02-02T11:42:23.746Z,54.02
2023-02-02T11:44:54.047Z,53.29
2023-02-02T11:47:26.066Z,52.71
2023-02-02T11:50:37.292Z,53.09
2023-02-02T11:53:45.032Z,53.59
2023-02-02T11:56:26.313Z,53.40
2023-02-02T11:59:03.930Z,52.78
2023-02-02T12:01:34.482Z,52.31
2023-02-02T12:04:03.452Z,52.53
2023-02-02T12:06:32.741Z,52.59
2023-02-02T12:09:22.224Z,52.25
2023-02-02T12:12:21.516Z,51.83
2023-02-02T12:14:59.031Z,51.46
2023-02-02T12:17:42.994Z,52.13
2023-02-02T12:24:14.757Z,53.66
2023-02-02T12:26:57.499Z,54.19
2023-02-02T12:29:54.527Z,55.10
2023-02-02T12:32:26.962Z,54.28
2023-02-02T12:35:15.866Z,52.92
2023-02-02T12:51:25.511Z,52.00
2023-02-02T13:00:16.351Z,53.36
2023-02-02T13:03:16.610Z,53.51
2023-02-02T13:06:24.768Z,52.93
2023-02-02T13:09:14.135Z,53.55
2023-02-02T13:11:55.959Z,54.09
2023-02-02T13:14:41.817Z,53.61
2023-02-02T13:17:26.368Z,54.07
2023-02-02T13:19:57.949Z,53.62
2023-02-02T13:22:29.957Z,54.18
2023-02-02T13:25:01.380Z,53.74
2023-02-02T13:27:30.347Z,53.78
2023-02-02T13:30:24.956Z,53.59
2023-02-02T13:32:53.596Z,53.10
2023-02-02T13:35:28.839Z,53.39
2023-02-02T13:38:30.332Z,54.20
2023-02-02T13:41:01.450Z,55.16
2023-02-02T13:43:47.239Z,55.29
2023-02-02T13:46:16.684Z,55.04
2023-02-02T13:49:52.054Z,56.14
2023-02-02T13:52:51.370Z,55.24
2023-02-02T13:56:13.763Z,55.14
2023-02-02T13:59:05.727Z,54.34
2023-02-02T14:01:36.689Z,53.86
2023-02-02T14:04:04.897Z,53.73
2023-02-02T14:06:53.184Z,53.29
2023-02-02T14:09:20.003Z,53.11
2023-02-02T14:11:59.653Z,53.03
2023-02-02T14:14:32.721Z,52.52
2023-02-02T14:17:00.618Z,52.08
2023-02-02T14:19:36.133Z,52.12
2023-02-02T14:22:14.728Z,52.98
2023-02-02T14:24:44.801Z,53.09
2023-02-02T14:27:11.410Z,52.81
2023-02-02T14:29:59.561Z,54.48
2023-02-02T14:32:29.326Z,54.56
2023-02-02T14:35:11.089Z,53.73
2023-02-02T14:38:00.509Z,54.73
2023-02-02T14:40:51.642Z,55.16
2023-02-02T14:43:46.115Z,54.82
2023-02-02T14:46:12.729Z,54.37
2023-02-02T14:49:02.833Z,53.65
2023-02-02T14:51:32.984Z,54.21
2023-02-02T14:54:02.578Z,54.63
2023-02-02T14:56:51.370Z,53.89
2023-02-02T14:59:35.077Z,53.31
2023-02-02T15:02:17.022Z,53.76
2023-02-02T15:04:47.881Z,54.11
2023-02-02T15:07:23.279Z,53.70
2023-02-02T15:09:50.981Z,54.44
2023-02-02T15:12:27.188Z,54.82
2023-02-02T15:15:27.871Z,54.82
2023-02-02T15:18:12.627Z,56.25
2023-02-02T15:21:01.619Z,56.28
2023-02-02T15:23:36.134Z,56.26
2023-02-02T15:26:31.077Z,55.63
2023-02-02T15:29:01.351Z,57.06
2023-02-02T15:31:44.085Z,56.88
2023-02-02T15:34:26.197Z,56.97
2023-02-02T15:37:00.281Z,56.97
2023-02-02T15:39:42.995Z,57.70
2023-02-02T15:42:55.750Z,58.53
2023-02-02T15:45:28.473Z,59.37
2023-02-02T15:47:57.548Z,60.00
2023-02-02T15:50:24.700Z,59.67
2023-02-02T15:52:52.651Z,60.46
2023-02-02T15:55:24.035Z,60.87
2023-02-02T15:57:54.262Z,61.47
2023-02-02T16:00:28.955Z,59.83
2023-02-02T16:03:07.284Z,60.94
2023-02-02T16:05:36.827Z,60.96
2023-02-02T16:08:08.867Z,61.50
2023-02-02T16:10:35.812Z,61.52
2023-02-02T16:13:03.018Z,60.90
2023-02-02T16:15:31.972Z,61.82
2023-02-02T16:18:00.579Z,61.36
2023-02-02T16:20:29.605Z,62.27
2023-02-02T16:23:01.978Z,61.42
2023-02-02T16:25:32.713Z,61.42
2023-02-02T16:28:00.995Z,61.25
2023-02-02T16:30:31.171Z,60.68
2023-02-02T16:32:58.060Z,61.33
2023-02-02T16:35:39.134Z,61.69
2023-02-02T16:38:15.895Z,61.66
2023-02-02T16:40:42.654Z,61.56
2023-02-02T16:43:28.791Z,62.20
2023-02-02T16:45:58.349Z,62.90
2023-02-02T16:48:35.871Z,62.28
2023-02-02T16:51:06.503Z,62.26
2023-02-02T16:53:34.734Z,62.06
2023-02-02T16:56:03.801Z,60.96
2023-02-02T16:58:30.863Z,61.60
2023-02-02T17:01:05.166Z,62.17
2023-02-02T17:03:44.864Z,62.53
2023-02-02T17:06:11.870Z,62.17
2023-02-02T17:08:39.900Z,61.92
2023-02-02T17:11:16.193Z,62.32
2023-02-02T17:13:43.982Z,62.50
2023-02-02T17:16:14.521Z,63.94
2023-02-02T17:18:41.136Z,63.30
2023-02-02T17:21:15.039Z,63.52
2023-02-02T17:23:42.593Z,63.58
2023-02-02T17:26:10.850Z,62.41
2023-02-02T17:28:40.190Z,63.32
2023-02-02T17:31:10.091Z,63.24
2023-02-02T17:33:37.279Z,63.35
2023-02-02T17:36:05.104Z,63.08
2023-02-02T17:38:32.807Z,62.57
2023-02-02T17:41:02.503Z,62.45
2023-02-02T17:43:30.907Z,62.38
2023-02-02T17:45:57.939Z,61.54
2023-02-02T17:48:24.616Z,62.00
2023-02-02T17:50:51.210Z,62.76
2023-02-02T17:53:20.424Z,62.44
2023-02-02T17:55:49.985Z,62.00
2023-02-02T17:58:18.026Z,62.06
2023-02-02T18:00:47.797Z,61.91
2023-02-02T18:03:20.136Z,62.33
2023-02-02T18:05:46.971Z,62.33
2023-02-02T18:08:13.729Z,61.79
2023-02-02T18:10:41.337Z,61.48
2023-02-02T18:13:11.140Z,62.73
2023-02-02T18:15:38.688Z,62.93
2023-02-02T18:18:05.527Z,62.02
2023-02-02T18:20:32.157Z,63.00
2023-02-02T18:22:58.796Z,62.90
2023-02-02T18:25:26.070Z,62.51
2023-02-02T18:27:55.414Z,62.20
2023-02-02T18:30:24.052Z,61.24
2023-02-02T18:32:50.888Z,62.37
2023-02-02T18:35:17.449Z,63.30
2023-02-02T18:37:44.115Z,64.42
2023-02-02T18:40:11.626Z,64.34
2023-02-02T18:42:38.249Z,65.39
2023-02-02T18:45:05.868Z,65.13
2023-02-02T18:47:32.526Z,64.68
2023-02-02T18:49:59.108Z,63.84
2023-02-02T18:52:25.776Z,63.65
2023-02-02T18:54:52.360Z,64.31
2023-02-02T18:57:18.988Z,63.13
2023-02-02T18:59:45.556Z,62.68
2023-02-02T19:02:16.790Z,63.91
2023-02-02T19:05:04.032Z,63.35
2023-02-02T19:07:50.622Z,62.98
2023-02-02T19:10:18.130Z,63.79
2023-02-02T19:12:56.211Z,64.59
2023-02-02T19:15:23.383Z,65.10
2023-02-02T19:17:52.936Z,65.68
2023-02-02T19:20:30.253Z,65.87
2023-02-02T19:23:11.683Z,66.33
2023-02-02T19:25:40.820Z,66.04
2023-02-02T19:28:30.712Z,65.42
2023-02-02T19:30:59.657Z,67.10
2023-02-02T19:33:37.734Z,66.25
2023-02-02T19:36:05.840Z,66.31
2023-02-02T19:41:25.515Z,66.65
2023-02-02T19:43:57.022Z,65.38
2023-02-02T19:46:26.693Z,65.33
2023-02-02T19:49:02.581Z,65.28
2023-02-02T19:51:45.801Z,65.28
2023-02-02T19:55:02.463Z,65.58
2023-02-02T19:57:45.727Z,64.91
2023-02-02T20:00:15.347Z,65.81
2023-02-02T20:02:54.631Z,66.34
2023-02-02T20:05:44.669Z,65.42
2023-02-02T20:08:24.180Z,64.98
2023-02-02T20:10:53.227Z,65.28
2023-02-02T20:13:43.731Z,66.75
2023-02-02T20:16:19.976Z,65.60
2023-02-02T20:18:55.883Z,67.06
2023-02-02T20:21:32.270Z,66.48
2023-02-02T20:23:58.919Z,66.19
2023-02-02T20:26:27.058Z,67.74
2023-02-02T20:28:59.842Z,66.76
2023-02-02T20:31:36.810Z,67.02
2023-02-02T20:34:39.285Z,67.42
2023-02-02T20:37:14.046Z,68.55
2023-02-02T20:39:47.848Z,67.77
2023-02-02T20:42:15.249Z,68.70
2023-02-02T20:44:42.251Z,67.89
2023-02-02T20:47:09.497Z,69.01
2023-02-02T20:49:37.690Z,69.10
2023-02-02T20:52:08.171Z,69.55
2023-02-02T20:54:34.886Z,68.69
2023-02-02T20:57:02.333Z,68.37
2023-02-02T20:59:29.270Z,67.93
2023-02-02T21:01:55.859Z,68.36
2023-02-02T21:04:22.544Z,67.87
2023-02-02T21:06:49.562Z,67.47
2023-02-02T21:09:16.840Z,67.46
2023-02-02T21:11:43.643Z,68.52
2023-02-02T21:14:10.446Z,68.77
2023-02-02T21:16:37.052Z,68.87
2023-02-02T21:19:03.658Z,68.25
2023-02-02T21:21:30.451Z,68.63
2023-02-02T21:23:57.167Z,67.61
2023-02-02T21:26:27.249Z,68.08
2023-02-02T21:28:54.079Z,68.84
2023-02-02T21:31:20.788Z,70.02
2023-02-02T21:33:49.867Z,70.53
2023-02-02T21:36:25.206Z,69.63
2023-02-02T21:38:52.276Z,69.21
2023-02-02T21:41:18.905Z,71.11
2023-02-02T21:43:52.563Z,70.84
2023-02-02T21:46:48.247Z,71.17
2023-02-02T21:49:39.855Z,70.74
2023-02-02T21:52:17.487Z,71.21
2023-02-02T21:54:44.499Z,71.02
2023-02-02T21:57:24.504Z,69.92
2023-02-02T21:59:55.287Z,69.71
2023-02-02T22:02:44.117Z,68.76
2023-02-02T22:05:17.946Z,68.88
2023-02-02T22:07:49.968Z,68.77
2023-02-02T22:10:37.543Z,69.43
2023-02-02T22:13:24.958Z,69.05
2023-02-02T22:15:53.132Z,69.54
2023-02-02T22:18:22.876Z,68.87
2023-02-02T22:20:52.020Z,68.25
2023-02-02T22:23:21.292Z,67.88
2023-02-02T22:25:50.560Z,67.35
2023-02-02T22:28:19.363Z,66.42
2023-02-02T22:30:46.896Z,66.42
2023-02-02T22:55:56.545Z,68.73
2023-02-02T22:58:24.531Z,69.50
2023-02-02T23:00:51.666Z,68.59
2023-02-02T23:03:18.597Z,69.40
2023-02-02T23:05:45.175Z,70.38
2023-02-02T23:08:27.076Z,70.21
2023-02-02T23:10:54.916Z,69.30
2023-02-02T23:13:21.486Z,68.74
2023-02-02T23:15:48.059Z,68.24
2023-02-02T23:18:57.494Z,67.61
2023-02-02T23:21:48.907Z,67.89
2023-02-02T23:24:15.482Z,68.17
2023-02-02T23:26:42.063Z,68.35
2023-02-02T23:29:08.626Z,67.93
2023-02-02T23:31:35.289Z,68.40
2023-02-02T23:34:01.878Z,68.48
2023-02-02T23:36:30.975Z,67.99
2023-02-02T23:38:58.957Z,68.39
2023-02-02T23:41:25.517Z,67.73
2023-02-02T23:43:52.209Z,66.92
2023-02-02T23:46:19.069Z,66.77
2023-02-02T23:49:07.621Z,67.16
2023-02-02T23:51:46.467Z,66.84
